Time;durP1;ratioP1;P1;durP2;ratioP2;P2;SDS_P1;SDS_P2;PMS_P1;PMS_P2;Temp;Humidity;BMP_temperature;BMP_pressure;BME280_temperature;BME280_humidity;BME280_pressure;Samples;Min_cycle;Max_cycle;Signal;HPM_P1;HPM_P2
2021/03/31 00:01:54;;;;;;;28.98;16.65;;;14.10;59.10;;;;;;5064135;28;20094;-37
2021/03/31 00:04:20;;;;;;;28.15;16.73;;;14.00;58.60;;;;;;5064253;28;20023;-39
2021/03/31 00:06:46;;;;;;;25.90;14.70;;;14.10;58.00;;;;;;5063287;28;20048;-37
2021/03/31 00:09:12;;;;;;;26.33;16.33;;;14.20;57.90;;;;;;5063818;28;20063;-37
2021/03/31 00:11:40;;;;;;;26.85;15.93;;;14.30;57.50;;;;;;5064325;28;20107;-37
2021/03/31 00:14:05;;;;;;;28.02;15.32;;;14.30;57.40;;;;;;5070055;28;20448;-39
2021/03/31 00:16:31;;;;;;;25.08;15.60;;;14.30;57.30;;;;;;5071009;28;20060;-39
2021/03/31 00:18:57;;;;;;;26.75;15.27;;;14.40;57.30;;;;;;5070564;28;20024;-37
2021/03/31 00:21:22;;;;;;;25.48;14.02;;;14.30;57.30;;;;;;5070784;28;20032;-38
2021/03/31 00:23:48;;;;;;;27.27;15.45;;;14.30;57.50;;;;;;5070400;28;20474;-39
2021/03/31 00:26:14;;;;;;;27.33;15.20;;;14.20;57.40;;;;;;5070299;28;20047;-39
2021/03/31 00:28:39;;;;;;;28.40;14.93;;;14.20;57.40;;;;;;5071108;28;20103;-38
2021/03/31 00:31:05;;;;;;;26.23;14.63;;;14.20;57.50;;;;;;5070160;28;20032;-39
2021/03/31 00:33:30;;;;;;;26.90;15.30;;;14.20;57.70;;;;;;5070686;28;20032;-39
2021/03/31 00:35:57;;;;;;;24.73;14.13;;;14.10;58.00;;;;;;5070822;28;20079;-39
2021/03/31 00:38:22;;;;;;;22.77;13.10;;;14.00;58.50;;;;;;5070709;28;20070;-37
2021/03/31 00:40:54;;;;;;;19.50;11.88;;;13.90;58.90;;;;;;5069821;28;20025;-39
2021/03/31 00:43:21;;;;;;;21.55;12.85;;;13.80;59.90;;;;;;5071220;28;20094;-37
2021/03/31 00:45:46;;;;;;;23.33;12.63;;;13.60;59.70;;;;;;5069608;28;20452;-37
2021/03/31 00:48:16;;;;;;;23.42;14.27;;;13.50;60.00;;;;;;5070775;28;20199;-40
2021/03/31 00:50:50;;;;;;;21.38;13.23;;;13.40;60.30;;;;;;5070291;28;20491;-40
2021/03/31 00:53:32;;;;;;;25.65;15.07;;;13.30;60.70;;;;;;5070397;28;20071;-39
2021/03/31 00:55:58;;;;;;;21.70;13.27;;;13.20;61.10;;;;;;5070323;28;20462;-40
2021/03/31 00:58:24;;;;;;;26.17;14.38;;;13.10;61.30;;;;;;5070472;28;20550;-39
2021/03/31 01:00:50;;;;;;;21.25;13.07;;;13.00;61.50;;;;;;5070105;28;20097;-39
2021/03/31 01:03:15;;;;;;;22.50;13.38;;;12.90;61.90;;;;;;5070847;28;20029;-37
2021/03/31 01:05:41;;;;;;;21.10;12.88;;;12.80;62.10;;;;;;5069501;28;20059;-39
2021/03/31 01:08:07;;;;;;;22.88;13.45;;;12.70;62.50;;;;;;5069898;28;20054;-39
2021/03/31 01:10:56;;;;;;;25.15;13.70;;;12.60;62.90;;;;;;5069886;28;20028;-38
2021/03/31 01:13:46;;;;;;;23.48;13.73;;;12.60;63.10;;;;;;5068585;28;20249;-37
2021/03/31 01:16:35;;;;;;;22.85;13.02;;;12.50;63.20;;;;;;5070177;28;20028;-41
2021/03/31 01:19:25;;;;;;;23.10;13.80;;;12.40;63.30;;;;;;5061128;28;20423;-38
2021/03/31 01:22:13;;;;;;;23.65;14.25;;;12.40;63.60;;;;;;5069928;28;20134;-39
2021/03/31 01:25:00;;;;;;;25.10;14.95;;;12.30;63.80;;;;;;5067088;28;20411;-39
2021/03/31 01:27:52;;;;;;;23.40;13.73;;;12.30;64.20;;;;;;5066534;28;20021;-39
2021/03/31 01:30:57;;;;;;;23.23;12.90;;;12.20;64.30;;;;;;5067363;28;20024;-39
2021/03/31 01:34:13;;;;;;;20.05;12.63;;;12.20;64.60;;;;;;5066560;28;20188;-38
2021/03/31 01:36:40;;;;;;;23.90;14.15;;;12.10;64.80;;;;;;5048676;28;20072;-42
2021/03/31 01:39:09;;;;;;;23.65;13.68;;;12.10;64.90;;;;;;5066643;28;20033;-36
2021/03/31 01:41:37;;;;;;;24.27;13.27;;;12.00;65.20;;;;;;5066657;28;20060;-41
2021/03/31 01:44:08;;;;;;;23.88;13.80;;;12.00;65.50;;;;;;5066235;28;20108;-39
2021/03/31 01:46:39;;;;;;;24.75;13.02;;;12.00;65.80;;;;;;5066931;28;20110;-39
2021/03/31 01:49:07;;;;;;;22.65;12.50;;;11.90;66.00;;;;;;5065978;28;20028;-38
2021/03/31 01:51:34;;;;;;;20.33;13.43;;;11.80;66.20;;;;;;5066759;28;20020;-39
2021/03/31 01:54:01;;;;;;;20.50;13.27;;;11.80;66.50;;;;;;5066285;28;20048;-39
2021/03/31 01:56:27;;;;;;;24.70;13.68;;;11.70;66.70;;;;;;5066191;28;20024;-39
2021/03/31 01:58:55;;;;;;;20.67;13.20;;;11.70;67.00;;;;;;5066376;28;20051;-38
2021/03/31 02:01:22;;;;;;;21.67;13.02;;;11.60;67.20;;;;;;5066398;28;20384;-41
2021/03/31 02:03:51;;;;;;;24.58;14.52;;;11.60;67.50;;;;;;5066020;28;20162;-41
2021/03/31 02:06:18;;;;;;;23.67;13.88;;;11.50;67.70;;;;;;5066512;28;20111;-38
2021/03/31 02:08:45;;;;;;;23.92;14.40;;;11.50;67.80;;;;;;5065652;28;20044;-42
2021/03/31 02:11:12;;;;;;;22.13;13.70;;;11.50;68.00;;;;;;5066896;28;20029;-39
2021/03/31 02:13:38;;;;;;;25.05;14.45;;;11.50;68.10;;;;;;5065806;28;20522;-40
2021/03/31 02:16:05;;;;;;;23.05;13.63;;;11.40;68.00;;;;;;5065337;28;20536;-43
2021/03/31 02:18:33;;;;;;;23.77;14.88;;;11.40;68.00;;;;;;5064580;28;20070;-38
2021/03/31 02:21:00;;;;;;;23.58;13.57;;;11.40;68.10;;;;;;5060108;28;20021;-38
2021/03/31 02:23:36;;;;;;;22.30;13.43;;;11.40;68.10;;;;;;5049105;28;20028;-39
2021/03/31 02:26:03;;;;;;;22.23;14.00;;;11.40;68.20;;;;;;5055319;28;20116;-39
2021/03/31 02:28:31;;;;;;;22.70;13.85;;;11.40;68.20;;;;;;5064884;28;20028;-38
2021/03/31 02:30:56;;;;;;;23.05;14.15;;;11.30;68.20;;;;;;5065466;28;20460;-38
2021/03/31 02:33:26;;;;;;;22.77;13.25;;;11.40;68.20;;;;;;5065422;28;20028;-36
2021/03/31 02:35:52;;;;;;;23.40;13.52;;;11.40;68.10;;;;;;5061905;28;20071;-39
2021/03/31 02:38:18;;;;;;;21.88;13.00;;;11.40;68.10;;;;;;5065956;28;20127;-42
2021/03/31 02:40:46;;;;;;;21.02;12.93;;;11.40;68.10;;;;;;5065173;28;20035;-38
2021/03/31 02:43:15;;;;;;;22.52;13.07;;;11.40;68.30;;;;;;5065838;28;20448;-38
2021/03/31 02:45:47;;;;;;;21.50;12.82;;;11.30;68.40;;;;;;5064397;28;20391;-37
2021/03/31 02:48:16;;;;;;;20.75;13.13;;;11.20;68.50;;;;;;5065867;28;20552;-37
2021/03/31 02:50:42;;;;;;;20.45;12.02;;;11.20;68.60;;;;;;5064838;28;20032;-39
2021/03/31 02:53:09;;;;;;;20.77;13.00;;;11.20;68.70;;;;;;5064955;28;20337;-39
2021/03/31 02:55:37;;;;;;;20.98;12.68;;;11.20;68.70;;;;;;5065201;28;20016;-39
2021/03/31 02:58:04;;;;;;;24.75;13.27;;;11.10;68.70;;;;;;5064490;28;20025;-36
2021/03/31 03:00:33;;;;;;;21.00;12.95;;;11.10;68.80;;;;;;5064555;28;20245;-41
2021/03/31 03:03:00;;;;;;;20.92;13.05;;;11.10;68.80;;;;;;5065334;28;20124;-39
2021/03/31 03:05:26;;;;;;;23.60;13.10;;;11.10;68.90;;;;;;5062774;28;20059;-37
2021/03/31 03:07:52;;;;;;;20.73;13.25;;;11.10;68.90;;;;;;5064456;28;20028;-38
2021/03/31 03:10:18;;;;;;;23.25;13.98;;;11.10;69.00;;;;;;5065039;28;20413;-37
2021/03/31 03:13:03;;;;;;;22.25;13.48;;;11.00;69.00;;;;;;5064382;28;20131;-40
2021/03/31 03:15:29;;;;;;;22.88;13.05;;;11.00;69.30;;;;;;5064353;28;20559;-39
2021/03/31 03:17:58;;;;;;;23.63;14.52;;;11.00;69.30;;;;;;5064591;28;20151;-36
2021/03/31 03:20:25;;;;;;;24.50;14.32;;;10.90;69.50;;;;;;5064374;28;20108;-38
2021/03/31 03:22:53;;;;;;;22.70;14.48;;;10.90;69.70;;;;;;5064967;28;20119;-38
2021/03/31 03:25:23;;;;;;;24.42;14.40;;;10.80;69.80;;;;;;5064332;28;20024;-38
2021/03/31 03:27:50;;;;;;;23.85;14.38;;;10.70;69.90;;;;;;5063822;28;20032;-38
2021/03/31 03:30:21;;;;;;;21.98;13.75;;;10.80;70.10;;;;;;5064555;28;20490;-38
2021/03/31 03:32:49;;;;;;;24.92;14.82;;;10.70;70.30;;;;;;5060612;28;20024;-39
2021/03/31 03:35:21;;;;;;;21.33;13.55;;;10.60;70.40;;;;;;5064963;28;20464;-38
2021/03/31 03:37:48;;;;;;;22.35;13.75;;;10.60;70.60;;;;;;5062472;28;20110;-39
2021/03/31 03:40:15;;;;;;;23.27;14.60;;;10.50;70.80;;;;;;5064507;28;20058;-36
2021/03/31 03:42:41;;;;;;;24.45;14.85;;;10.50;71.60;;;;;;5064131;28;20039;-39
2021/03/31 03:45:08;;;;;;;26.73;13.93;;;10.40;71.20;;;;;;5064596;28;20052;-38
2021/03/31 03:47:35;;;;;;;26.25;14.85;;;10.40;71.20;;;;;;5062922;28;20035;-39
2021/03/31 03:50:01;;;;;;;28.27;16.42;;;10.50;71.00;;;;;;5063778;28;20029;-38
2021/03/31 03:52:28;;;;;;;26.33;16.17;;;10.50;70.70;;;;;;5063947;28;20103;-39
2021/03/31 03:54:55;;;;;;;24.20;14.43;;;10.60;70.60;;;;;;5063857;28;20063;-38
2021/03/31 03:57:28;;;;;;;21.42;13.70;;;10.60;70.50;;;;;;5063981;28;20032;-39
2021/03/31 03:59:54;;;;;;;22.20;14.07;;;10.60;70.40;;;;;;5064523;28;20183;-38
2021/03/31 04:02:20;;;;;;;22.30;13.75;;;10.50;70.40;;;;;;5063539;28;20032;-38
2021/03/31 04:04:45;;;;;;;24.63;14.50;;;10.50;70.50;;;;;;5063564;28;20369;-38
2021/03/31 04:07:11;;;;;;;23.88;14.90;;;10.50;70.60;;;;;;5064102;28;20543;-40
2021/03/31 04:09:40;;;;;;;25.65;15.27;;;10.50;70.80;;;;;;5063511;28;20021;-39
2021/03/31 04:12:07;;;;;;;23.42;13.68;;;10.40;70.90;;;;;;5063601;28;20202;-40
2021/03/31 04:14:33;;;;;;;22.85;14.68;;;10.40;71.20;;;;;;5063930;28;20033;-37
2021/03/31 04:17:02;;;;;;;23.52;15.25;;;10.30;71.30;;;;;;5063207;28;20124;-38
2021/03/31 04:19:29;;;;;;;23.48;15.45;;;10.20;71.50;;;;;;5063607;28;20028;-38
2021/03/31 04:21:54;;;;;;;27.75;14.40;;;10.30;71.70;;;;;;5063158;28;20017;-39
2021/03/31 04:24:20;;;;;;;25.17;14.82;;;10.20;71.70;;;;;;5063737;28;20059;-40
2021/03/31 04:26:46;;;;;;;23.20;14.07;;;10.20;71.80;;;;;;5063850;28;20029;-39
2021/03/31 04:29:13;;;;;;;27.98;15.30;;;10.10;72.00;;;;;;5062976;28;20068;-39
2021/03/31 04:31:41;;;;;;;23.55;14.57;;;10.10;72.10;;;;;;5063455;28;20020;-39
2021/03/31 04:34:07;;;;;;;25.05;14.65;;;10.10;72.30;;;;;;5063305;28;20024;-39
2021/03/31 04:36:34;;;;;;;24.75;15.40;;;10.00;72.40;;;;;;5063334;28;20021;-40
2021/03/31 04:39:03;;;;;;;25.10;15.63;;;10.00;72.70;;;;;;5063454;28;20040;-39
2021/03/31 04:41:29;;;;;;;26.27;15.32;;;9.90;72.90;;;;;;5063498;28;20035;-39
2021/03/31 04:43:54;;;;;;;23.42;15.75;;;9.90;73.10;;;;;;5063452;28;20032;-38
2021/03/31 04:46:20;;;;;;;26.40;16.90;;;9.80;73.20;;;;;;5063759;28;20024;-39
2021/03/31 04:48:45;;;;;;;28.75;17.92;;;9.80;73.30;;;;;;5063210;28;20046;-36
2021/03/31 04:51:14;;;;;;;29.90;18.45;;;9.90;72.90;;;;;;5063476;28;20021;-41
2021/03/31 04:53:39;;;;;;;27.48;16.63;;;10.00;72.60;;;;;;5063491;28;20055;-35
2021/03/31 04:56:06;;;;;;;27.90;16.05;;;10.00;72.40;;;;;;5063404;28;20074;-37
2021/03/31 04:58:32;;;;;;;28.30;16.98;;;10.00;72.20;;;;;;5063655;28;20105;-36
2021/03/31 05:00:59;;;;;;;26.95;16.65;;;10.10;72.30;;;;;;5067738;28;20476;-40
2021/03/31 05:03:25;;;;;;;28.45;17.13;;;10.10;73.00;;;;;;5067256;28;20064;-37
2021/03/31 05:05:51;;;;;;;29.15;17.42;;;10.00;72.10;;;;;;5062989;28;20060;-40
2021/03/31 05:08:16;;;;;;;28.50;15.98;;;10.10;72.10;;;;;;5067643;28;20025;-36
2021/03/31 05:10:42;;;;;;;28.05;16.02;;;10.10;72.00;;;;;;5066971;28;20490;-40
2021/03/31 05:13:10;;;;;;;27.88;16.05;;;10.00;72.00;;;;;;5066926;28;20042;-38
2021/03/31 05:15:36;;;;;;;25.08;16.52;;;10.00;72.10;;;;;;5066543;28;20051;-42
2021/03/31 05:18:01;;;;;;;25.38;15.73;;;10.00;72.30;;;;;;5067465;28;20044;-36
2021/03/31 05:20:27;;;;;;;27.23;15.55;;;9.90;72.50;;;;;;5064853;28;20017;-38
2021/03/31 05:22:53;;;;;;;25.58;15.05;;;9.90;72.70;;;;;;5066805;28;20016;-38
2021/03/31 05:25:18;;;;;;;22.17;13.95;;;9.90;72.80;;;;;;5066902;28;20041;-38
2021/03/31 05:27:44;;;;;;;23.25;14.88;;;9.90;72.80;;;;;;5066915;28;20041;-37
2021/03/31 05:30:11;;;;;;;26.73;15.38;;;9.90;73.00;;;;;;5066622;28;20100;-38
2021/03/31 05:32:37;;;;;;;22.90;15.15;;;9.80;73.10;;;;;;5066226;28;20495;-37
2021/03/31 05:35:04;;;;;;;23.05;15.02;;;9.80;73.30;;;;;;5066489;28;20456;-39
2021/03/31 05:37:30;;;;;;;20.98;13.63;;;9.70;73.50;;;;;;5066874;28;20036;-38
2021/03/31 05:39:56;;;;;;;24.48;14.65;;;9.60;73.70;;;;;;5065742;28;20024;-38
2021/03/31 05:42:21;;;;;;;23.83;14.55;;;9.60;73.90;;;;;;5065630;28;20025;-38
2021/03/31 05:44:47;;;;;;;24.48;14.65;;;9.60;74.00;;;;;;5066698;28;20044;-39
2021/03/31 05:47:35;;;;;;;24.35;15.43;;;9.50;74.20;;;;;;5062721;28;20552;-38
2021/03/31 05:50:03;;;;;;;22.83;15.40;;;9.50;74.50;;;;;;5066775;28;20025;-39
2021/03/31 05:52:31;;;;;;;25.58;15.93;;;9.50;74.60;;;;;;5062316;28;20114;-39
2021/03/31 05:54:57;;;;;;;23.45;14.63;;;9.40;75.40;;;;;;5058321;28;20086;-37
2021/03/31 05:57:26;;;;;;;21.95;14.80;;;9.40;75.60;;;;;;5065574;28;20563;-38
2021/03/31 05:59:52;;;;;;;24.23;15.20;;;9.40;75.10;;;;;;5066251;28;20064;-39
2021/03/31 06:02:18;;;;;;;21.80;14.75;;;9.40;75.20;;;;;;5064473;28;20032;-39
2021/03/31 06:04:44;;;;;;;24.15;15.25;;;9.40;75.30;;;;;;5066281;28;20025;-37
2021/03/31 06:07:11;;;;;;;24.25;16.02;;;9.50;75.50;;;;;;5065868;28;20062;-39
2021/03/31 06:10:20;;;;;;;23.75;15.18;;;9.50;75.60;;;;;;5065250;28;20115;-38
2021/03/31 06:12:51;;;;;;;22.05;15.32;;;9.50;75.60;;;;;;5021989;28;20553;-38
2021/03/31 06:15:40;;;;;;;22.52;14.30;;;9.60;75.30;;;;;;5022312;28;20034;-38
2021/03/31 06:18:09;;;;;;;21.10;14.02;;;9.60;75.40;;;;;;5050078;28;20135;-39
2021/03/31 06:20:34;;;;;;;23.23;14.25;;;9.70;75.40;;;;;;5066017;28;20046;-39
2021/03/31 06:23:22;;;;;;;23.23;14.85;;;9.70;75.30;;;;;;5065312;28;20444;-39
2021/03/31 06:25:57;;;;;;;21.73;14.32;;;9.70;75.20;;;;;;5065984;28;20090;-42
2021/03/31 06:28:35;;;;;;;22.25;14.18;;;9.80;75.00;;;;;;5061509;28;20750;-36
2021/03/31 06:31:19;;;;;;;21.80;13.55;;;9.90;75.10;;;;;;5066293;28;20096;-37
2021/03/31 06:33:47;;;;;;;22.98;13.32;;;9.90;75.00;;;;;;5065008;28;20020;-41
2021/03/31 06:36:15;;;;;;;19.10;12.80;;;10.00;74.80;;;;;;5065446;28;20031;-39
2021/03/31 06:38:48;;;;;;;22.98;13.60;;;10.10;74.80;;;;;;5065865;28;20090;-40
2021/03/31 06:41:26;;;;;;;19.10;12.23;;;10.10;74.60;;;;;;5064973;28;20021;-40
2021/03/31 06:44:11;;;;;;;20.48;12.80;;;10.20;74.50;;;;;;5065646;28;20132;-40
2021/03/31 06:46:44;;;;;;;18.42;12.50;;;10.30;74.40;;;;;;5066164;28;20021;-42
2021/03/31 06:49:10;;;;;;;21.92;12.60;;;10.30;74.20;;;;;;5065425;28;20324;-39
2021/03/31 06:51:36;;;;;;;19.27;12.48;;;10.40;74.10;;;;;;5065422;28;20545;-38
2021/03/31 06:54:15;;;;;;;20.85;12.38;;;10.50;74.00;;;;;;5065567;28;20108;-40
2021/03/31 06:56:44;;;;;;;19.45;13.05;;;10.60;74.00;;;;;;5065205;28;20066;-40
2021/03/31 06:59:10;;;;;;;18.92;12.68;;;10.60;73.80;;;;;;5065102;28;20032;-37
2021/03/31 07:01:37;;;;;;;21.20;12.80;;;10.70;73.70;;;;;;5065443;28;20020;-38
2021/03/31 07:04:05;;;;;;;20.45;12.43;;;10.70;73.70;;;;;;5064884;28;20064;-37
2021/03/31 07:06:33;;;;;;;18.55;12.23;;;10.80;73.70;;;;;;5064426;28;20044;-38
2021/03/31 07:08:59;;;;;;;18.63;12.68;;;10.80;73.60;;;;;;5065002;28;20075;-39
2021/03/31 07:11:36;;;;;;;20.90;12.93;;;10.90;73.70;;;;;;5065147;28;20020;-39
2021/03/31 07:14:03;;;;;;;20.67;12.75;;;10.90;73.70;;;;;;5065531;28;20417;-39
2021/03/31 07:16:30;;;;;;;22.65;13.90;;;11.00;73.60;;;;;;5065278;28;20036;-39
2021/03/31 07:18:57;;;;;;;22.45;12.23;;;11.00;74.20;;;;;;5064447;28;20131;-39
2021/03/31 07:21:24;;;;;;;21.02;14.10;;;11.00;73.40;;;;;;5065300;28;20025;-37
2021/03/31 07:23:51;;;;;;;20.58;12.57;;;11.10;73.40;;;;;;5064176;28;20021;-37
2021/03/31 07:26:19;;;;;;;18.58;12.13;;;11.10;73.30;;;;;;5064691;28;20518;-36
2021/03/31 07:28:45;;;;;;;19.42;12.68;;;11.20;73.30;;;;;;5064979;28;20468;-39
2021/03/31 07:31:16;;;;;;;18.52;13.25;;;11.20;73.20;;;;;;5064984;28;20521;-41
2021/03/31 07:33:43;;;;;;;20.92;13.18;;;11.30;73.20;;;;;;5064359;28;20479;-37
2021/03/31 07:36:20;;;;;;;23.13;13.93;;;11.30;73.00;;;;;;5064755;28;20020;-37
2021/03/31 07:38:48;;;;;;;19.38;13.25;;;11.40;73.00;;;;;;5064468;28;20041;-34
2021/03/31 07:41:14;;;;;;;22.30;13.85;;;11.50;73.00;;;;;;5065176;28;20021;-39
2021/03/31 07:43:43;;;;;;;19.60;13.20;;;11.50;72.90;;;;;;5064679;28;20036;-39
2021/03/31 07:46:12;;;;;;;18.35;12.68;;;11.60;73.10;;;;;;5064606;28;20020;-38
2021/03/31 07:48:40;;;;;;;18.88;12.98;;;11.70;72.90;;;;;;5065227;28;20094;-39
2021/03/31 07:51:16;;;;;;;18.73;13.95;;;11.70;72.90;;;;;;5064615;28;20029;-39
2021/03/31 07:53:43;;;;;;;19.60;12.35;;;11.80;72.90;;;;;;5064658;28;20486;-36
2021/03/31 07:56:16;;;;;;;19.08;12.60;;;11.90;72.90;;;;;;5064326;28;20032;-38
2021/03/31 07:59:02;;;;;;;19.40;13.55;;;12.00;72.90;;;;;;5064838;28;20046;-38
2021/03/31 08:01:52;;;;;;;18.75;12.60;;;12.00;72.70;;;;;;5064425;28;20261;-40
2021/03/31 08:04:20;;;;;;;17.33;12.30;;;12.10;72.60;;;;;;5064485;28;20092;-39
2021/03/31 08:06:47;;;;;;;19.63;13.18;;;12.10;72.40;;;;;;5063434;28;20072;-39
2021/03/31 08:09:18;;;;;;;19.70;13.38;;;12.20;72.60;;;;;;5064930;28;20032;-39
2021/03/31 08:11:53;;;;;;;15.20;10.85;;;12.30;72.70;;;;;;5064280;28;20074;-39
2021/03/31 08:14:27;;;;;;;18.83;13.27;;;12.30;72.80;;;;;;5064562;28;20077;-38
2021/03/31 08:16:58;;;;;;;19.67;13.70;;;12.40;72.90;;;;;;5064471;28;20046;-40
2021/03/31 08:19:48;;;;;;;17.63;13.05;;;12.50;72.90;;;;;;5065114;28;20835;-40
2021/03/31 08:22:21;;;;;;;17.98;12.18;;;12.50;72.90;;;;;;5065430;28;20341;-40
2021/03/31 08:24:49;;;;;;;16.90;12.30;;;12.60;72.80;;;;;;5065590;28;20409;-38
2021/03/31 08:27:15;;;;;;;20.90;13.68;;;12.70;72.80;;;;;;5064800;28;20082;-38
2021/03/31 08:29:42;;;;;;;17.85;12.10;;;12.70;72.90;;;;;;5064168;28;20119;-39
2021/03/31 08:32:12;;;;;;;21.70;13.60;;;12.80;73.00;;;;;;5063644;28;20062;-37
2021/03/31 08:34:38;;;;;;;21.02;14.10;;;12.90;73.00;;;;;;5066828;28;20048;-34
2021/03/31 08:37:07;;;;;;;18.23;12.75;;;13.00;73.60;;;;;;5067656;28;20028;-39
2021/03/31 08:39:33;;;;;;;20.98;13.40;;;13.10;73.00;;;;;;5067562;28;20074;-39
2021/03/31 08:41:59;;;;;;;15.57;11.73;;;13.10;72.90;;;;;;5067676;28;20031;-39
2021/03/31 08:44:32;;;;;;;16.98;12.23;;;13.20;72.90;;;;;;5067528;28;20021;-39
2021/03/31 08:47:12;;;;;;;17.13;12.25;;;13.30;73.00;;;;;;5066321;28;20016;-39
2021/03/31 08:49:39;;;;;;;16.52;10.52;;;13.40;72.70;;;;;;5065976;28;20029;-39
2021/03/31 08:52:10;;;;;;;16.05;12.07;;;13.50;72.50;;;;;;5067810;28;20024;-39
2021/03/31 08:54:42;;;;;;;19.15;12.25;;;13.60;72.50;;;;;;5065657;28;20150;-39
2021/03/31 08:57:11;;;;;;;14.98;10.95;;;13.60;72.30;;;;;;5066663;28;20530;-40
2021/03/31 08:59:39;;;;;;;17.05;12.02;;;13.70;72.30;;;;;;5065357;28;20051;-39
2021/03/31 09:02:06;;;;;;;16.10;11.75;;;13.70;72.40;;;;;;5067720;28;20009;-39
2021/03/31 09:04:32;;;;;;;17.42;12.50;;;13.80;72.50;;;;;;5066933;28;20032;-42
2021/03/31 09:07:00;;;;;;;16.95;11.00;;;13.70;72.60;;;;;;5067741;28;20028;-39
2021/03/31 09:09:33;;;;;;;17.70;11.65;;;13.80;72.70;;;;;;5056856;28;20055;-37
2021/03/31 09:11:59;;;;;;;;;;;13.90;72.70;;;;;;5067330;28;20388;-39
2021/03/31 09:14:26;;;;;;;17.05;11.85;;;14.00;72.60;;;;;;5067477;28;19908;-39
2021/03/31 09:16:57;;;;;;;15.48;11.73;;;14.00;72.50;;;;;;5066683;28;20468;-40
2021/03/31 09:19:25;;;;;;;15.20;10.95;;;14.10;72.50;;;;;;5067294;28;20059;-35
2021/03/31 09:21:51;;;;;;;16.92;12.27;;;14.10;72.80;;;;;;5067244;28;20051;-37
2021/03/31 09:24:19;;;;;;;16.25;11.75;;;14.30;72.70;;;;;;5067027;28;20012;-38
2021/03/31 09:27:01;;;;;;;18.48;12.10;;;14.40;73.00;;;;;;5067487;28;20111;-39
2021/03/31 09:29:30;;;;;;;18.83;11.52;;;14.50;72.20;;;;;;5066857;28;20060;-40
2021/03/31 09:31:58;;;;;;;17.58;12.27;;;14.50;72.10;;;;;;5066680;28;20135;-40
2021/03/31 09:34:24;;;;;;;19.17;12.48;;;14.60;72.30;;;;;;5067294;28;20024;-39
2021/03/31 09:37:18;;;;;;;21.13;13.48;;;14.70;72.30;;;;;;5066845;28;20032;-39
2021/03/31 09:39:45;;;;;;;18.00;12.57;;;14.80;72.20;;;;;;5065243;28;20055;-38
2021/03/31 09:42:29;;;;;;;17.98;12.25;;;14.80;72.00;;;;;;5066535;28;20021;-38
2021/03/31 09:44:55;;;;;;;18.95;12.45;;;14.90;71.80;;;;;;5065535;28;20456;-40
2021/03/31 09:47:23;;;;;;;16.65;12.65;;;15.00;71.60;;;;;;5066288;28;20058;-40
2021/03/31 09:49:51;;;;;;;20.80;12.50;;;15.10;71.60;;;;;;5066586;28;20024;-42
2021/03/31 09:52:30;;;;;;;19.08;12.32;;;15.20;71.50;;;;;;5064739;28;20450;-40
2021/03/31 09:55:00;;;;;;;22.42;13.73;;;15.20;71.40;;;;;;5065993;28;20043;-40
2021/03/31 09:57:29;;;;;;;21.48;13.93;;;15.40;71.40;;;;;;5066573;28;20365;-39
2021/03/31 09:59:55;;;;;;;20.83;14.40;;;15.50;70.80;;;;;;5066476;28;20028;-41
2021/03/31 10:02:24;;;;;;;20.80;12.88;;;15.60;70.50;;;;;;5066540;28;20035;-43
2021/03/31 10:04:51;;;;;;;18.92;12.93;;;15.70;70.60;;;;;;5066123;28;20037;-40
2021/03/31 10:07:20;;;;;;;19.83;13.52;;;15.70;70.70;;;;;;5066173;28;20068;-39
2021/03/31 10:09:50;;;;;;;18.42;12.50;;;15.70;70.70;;;;;;5066306;28;20016;-39
2021/03/31 10:12:27;;;;;;;19.92;13.05;;;15.70;70.60;;;;;;5066748;28;20472;-40
2021/03/31 10:14:55;;;;;;;19.40;12.38;;;15.80;70.50;;;;;;5064179;28;20020;-39
2021/03/31 10:17:22;;;;;;;17.85;12.00;;;15.90;70.40;;;;;;5066797;28;20571;-39
2021/03/31 10:19:51;;;;;;;15.43;10.80;;;16.00;70.20;;;;;;5058994;28;20066;-41
2021/03/31 10:22:18;;;;;;;18.25;11.80;;;16.00;69.90;;;;;;5065609;28;20055;-38
2021/03/31 10:24:49;;;;;;;18.70;11.50;;;16.10;69.80;;;;;;5066281;28;20097;-39
2021/03/31 10:27:18;;;;;;;19.90;12.48;;;16.10;69.90;;;;;;5066067;28;20020;-42
2021/03/31 10:29:52;;;;;;;19.25;12.95;;;16.20;69.50;;;;;;5065358;28;20028;-39
2021/03/31 10:32:21;;;;;;;19.75;13.32;;;16.30;69.00;;;;;;5056435;28;20039;-40
2021/03/31 10:34:51;;;;;;;17.58;13.50;;;16.40;68.40;;;;;;5065109;28;20130;-38
2021/03/31 10:40:25;;;;;;;18.83;11.50;;;16.60;67.90;;;;;;5065428;28;20511;-39
2021/03/31 10:54:00;;;;;;;19.73;13.25;;;17.00;66.50;;;;;;5065335;28;20501;-42
2021/03/31 10:56:26;;;;;;;18.20;12.50;;;17.10;66.00;;;;;;5064559;28;20048;-44
2021/03/31 10:58:52;;;;;;;19.45;12.60;;;17.20;66.20;;;;;;5065538;28;20032;-40
2021/03/31 11:01:17;;;;;;;17.58;12.18;;;17.20;66.40;;;;;;5065305;28;20013;-40
2021/03/31 11:03:43;;;;;;;15.63;11.52;;;17.20;66.30;;;;;;5064967;28;20852;-42
2021/03/31 11:06:09;;;;;;;19.30;11.98;;;17.30;66.40;;;;;;5064335;28;20052;-39
2021/03/31 11:08:34;;;;;;;17.50;12.57;;;17.30;66.40;;;;;;5057572;28;20418;-39
2021/03/31 11:11:00;;;;;;;16.17;12.02;;;17.40;66.10;;;;;;5064598;28;20052;-39
2021/03/31 11:13:26;;;;;;;19.25;12.50;;;17.50;66.00;;;;;;5065091;28;20029;-40
2021/03/31 11:15:54;;;;;;;20.67;13.27;;;17.60;65.80;;;;;;5064580;28;20039;-40
2021/03/31 11:26:25;;;;;;;17.73;11.75;;;17.90;65.40;;;;;;5064659;28;20036;-39
2021/03/31 11:28:51;;;;;;;18.73;11.23;;;17.90;65.10;;;;;;5064563;28;20032;-40
2021/03/31 11:31:16;;;;;;;18.05;11.93;;;18.00;65.10;;;;;;5064753;28;20345;-39
2021/03/31 11:33:42;;;;;;;20.45;11.70;;;18.00;64.90;;;;;;5064527;28;20563;-40
2021/03/31 11:36:08;;;;;;;15.52;11.40;;;18.00;64.70;;;;;;5065053;28;20067;-40
2021/03/31 11:38:35;;;;;;;15.93;11.48;;;18.00;64.70;;;;;;5064255;28;20066;-39
2021/03/31 11:41:01;;;;;;;16.90;11.45;;;18.10;64.50;;;;;;5065077;28;20021;-39
2021/03/31 11:43:27;;;;;;;17.60;12.02;;;18.20;64.30;;;;;;5064892;28;20034;-39
2021/03/31 11:45:52;;;;;;;20.15;13.95;;;18.30;63.50;;;;;;5064227;28;20030;-38
2021/03/31 11:48:18;;;;;;;21.08;14.15;;;18.50;63.00;;;;;;5064766;28;20021;-39
2021/03/31 11:50:44;;;;;;;16.52;11.48;;;18.60;62.90;;;;;;5064802;28;20460;-42
2021/03/31 11:53:10;;;;;;;17.35;11.23;;;18.70;63.00;;;;;;5063706;28;20051;-40
2021/03/31 11:55:36;;;;;;;17.45;11.35;;;18.70;62.00;;;;;;5065094;28;20021;-40
2021/03/31 11:58:02;;;;;;;20.40;13.60;;;18.70;61.90;;;;;;5064255;28;20038;-40
2021/03/31 12:00:28;;;;;;;19.60;13.50;;;18.80;61.20;;;;;;5064121;28;20062;-39
2021/03/31 12:02:54;;;;;;;19.27;12.95;;;19.00;61.20;;;;;;5064752;28;20016;-39
2021/03/31 12:05:19;;;;;;;18.67;12.88;;;19.10;61.10;;;;;;5064766;28;20066;-42
2021/03/31 12:07:48;;;;;;;18.90;13.73;;;19.30;61.00;;;;;;5063818;28;21289;-41
2021/03/31 12:10:13;;;;;;;22.02;14.32;;;19.40;60.50;;;;;;5064545;28;20464;-42
2021/03/31 12:12:42;;;;;;;18.58;13.85;;;19.50;60.20;;;;;;5064359;28;20046;-39
2021/03/31 12:15:11;;;;;;;17.08;12.98;;;19.60;60.30;;;;;;5063725;28;20024;-38
2021/03/31 12:17:37;;;;;;;18.02;12.90;;;19.60;60.50;;;;;;5064811;28;20139;-40
2021/03/31 12:20:06;;;;;;;16.77;11.73;;;19.50;60.70;;;;;;5063419;28;20047;-38
2021/03/31 12:22:31;;;;;;;19.00;12.18;;;19.50;60.80;;;;;;5056637;28;20415;-38
2021/03/31 12:24:57;;;;;;;21.52;14.23;;;19.50;60.50;;;;;;5059255;28;20124;-40
2021/03/31 12:27:23;;;;;;;20.63;14.40;;;19.50;59.90;;;;;;5064450;28;20119;-38
2021/03/31 12:29:50;;;;;;;20.45;14.43;;;19.60;59.80;;;;;;5064017;28;20028;-38
2021/03/31 12:32:16;;;;;;;20.65;15.05;;;19.70;59.70;;;;;;5064251;28;20013;-39
2021/03/31 12:34:44;;;;;;;17.02;12.35;;;19.80;59.40;;;;;;5063439;28;20448;-44
2021/03/31 12:37:10;;;;;;;19.50;12.75;;;19.80;59.40;;;;;;5063647;28;20098;-39
2021/03/31 12:39:36;;;;;;;16.70;12.20;;;19.90;59.30;;;;;;5063943;28;20032;-40
2021/03/31 12:42:02;;;;;;;16.02;11.13;;;19.90;59.30;;;;;;5063987;28;20310;-39
2021/03/31 12:44:28;;;;;;;14.85;11.07;;;19.90;59.30;;;;;;5063453;28;20024;-39
2021/03/31 12:46:53;;;;;;;18.60;12.05;;;19.90;59.30;;;;;;5064218;28;20125;-39
2021/03/31 12:49:19;;;;;;;16.90;11.60;;;20.00;58.70;;;;;;5063593;28;20034;-37
2021/03/31 12:51:48;;;;;;;21.20;13.27;;;20.00;58.70;;;;;;5063524;28;20048;-39
2021/03/31 12:54:27;;;;;;;18.25;12.57;;;20.00;58.70;;;;;;5063906;28;20075;-39
2021/03/31 12:56:54;;;;;;;17.73;12.27;;;20.00;58.80;;;;;;5063540;28;20055;-41
2021/03/31 12:59:19;;;;;;;17.60;12.05;;;20.00;59.00;;;;;;5063919;28;20090;-39
2021/03/31 13:01:45;;;;;;;20.52;14.68;;;20.00;58.90;;;;;;5064095;28;20024;-38